Airfield :
LOGIN :

Register | Disclaimer

   EN    FR    IT 

 










Legend :    VFR   Marginal VFR   IFR   Intensive IFR   Very Intensive IFR
Visi :
Ceiling :
>= 8 km
>= 3000ft
5 to 8 km
1000 to 3000 ft
1500m to 5 km
500 to 1000 ft
800 to 1500m
200 to 500 ft
< 800m
< 200 ft
Symbols :   Thunderstorms  Fog  Heavy snow  Heavy precipitations  Wind > 20 kt
SIGMETs :     Misc.  Thunderstorms  Icing  Turbulence  Mountain Waves  Volcanic Ashes







- Airport Elevation : 124 ft
- IATA code : RNS
- Download approach charts


LFRN - Rennes

CURRENT METAR :
  • 251100Z AUTO 02012KT 9999 SCT037 BKN044 OVC050 12/05 Q1032 NOSIG

EXPIRED METARs :
  • 251030Z AUTO 02013KT 360V060 9999 BKN031 BKN037 OVC047 11/05 Q1032 NOSIG
  • 251000Z AUTO 01013KT 9999 BKN028 BKN033 OVC042 10/05 Q1032 NOSIG
  • 250930Z AUTO 01014KT 9999 BKN027 BKN034 OVC041 11/05 Q1032 NOSIG
  • 250900Z AUTO 02011KT 350V050 9999 SCT023 BKN029 BKN036 10/07 Q1032 NOSIG
  • 250830Z AUTO 35005KT 320V020 9999 BKN016 09/08 Q1031 NOSIG

TAF TAF LFRN
Valid from the 25 at 06:00 until the 26 at 06:00 UTC


250500Z 2506/2606 VRB05KT 3000 BR SCT020
TEMPO 2506/2508 0500 FG
BECMG 2508/2510 02010KT 9999 NSW
BECMG 2522/2524 VRB05KT
BECMG 2600/2602 3000 BR
TEMPO 2602/2606 0500 FG
ATIS : +33 2 99 67 72 50
No reported NOTAMs for that airfield.



MET'MAP, your aeronautical weather chart ! - Copyright ORBIFLY December 2007 - Disclaimer

ORBIFLY MET'MAP TEAM :

Programming & Development : Alexandra Zaïnal
Concept & Development : Baudouin d'Aumeries
Co-Development & Prog : Marc-Olivier Méhu
Technical & hardware support : Manuel Goepfert

Contact : metmap@orbifly.com




SOURCES & CREDITS :

   NOAA